createdAt,value
2019-04-14T00:02:25.057Z,70.46
2019-04-14T00:04:57.194Z,70.23
2019-04-14T00:07:27.680Z,70.09
2019-04-14T00:09:58.509Z,70.58
2019-04-14T00:12:29.493Z,70.90
2019-04-14T00:14:59.900Z,70.21
2019-04-14T00:17:30.622Z,70.05
2019-04-14T00:20:01.749Z,70.36
2019-04-14T00:22:32.203Z,70.74
2019-04-14T00:25:02.684Z,70.29
2019-04-14T00:27:32.927Z,70.12
2019-04-14T00:30:03.410Z,70.15
2019-04-14T00:32:35.566Z,71.22
2019-04-14T00:35:12.488Z,70.50
2019-04-14T00:38:04.225Z,71.15
2019-04-14T00:40:39.051Z,70.60
2019-04-14T00:43:27.342Z,71.23
2019-04-14T00:46:04.360Z,71.55
2019-04-14T00:48:34.520Z,72.22
2019-04-14T00:51:04.890Z,71.93
2019-04-14T00:53:36.020Z,71.77
2019-04-14T00:56:06.431Z,72.19
2019-04-14T00:58:36.799Z,71.81
2019-04-14T01:01:07.564Z,72.16
2019-04-14T01:03:37.740Z,71.93
2019-04-14T01:06:07.840Z,71.58
2019-04-14T01:08:38.121Z,71.81
2019-04-14T01:11:09.458Z,71.06
2019-04-14T01:13:39.821Z,71.21
2019-04-14T01:16:16.617Z,71.52
2019-04-14T01:18:42.886Z,71.69
2019-04-14T01:21:13.202Z,71.46
2019-04-14T01:23:43.503Z,71.08
2019-04-14T01:26:16.028Z,70.63
2019-04-14T01:28:46.272Z,70.89
2019-04-14T01:31:16.355Z,70.61
2019-04-14T01:33:46.962Z,70.87
2019-04-14T01:36:17.294Z,70.44
2019-04-14T01:38:49.260Z,70.40
2019-04-14T01:41:19.456Z,70.83
2019-04-14T01:43:49.717Z,70.15
2019-04-14T01:46:24.096Z,69.93
2019-04-14T01:48:53.996Z,70.16
2019-04-14T01:51:35.267Z,70.45
2019-04-14T01:54:25.687Z,70.08
2019-04-14T01:57:17.897Z,70.75
2019-04-14T01:59:48.277Z,70.49
2019-04-14T02:02:22.721Z,71.24
2019-04-14T02:04:53.826Z,70.85
2019-04-14T02:07:25.434Z,70.53
2019-04-14T02:09:55.795Z,70.32
2019-04-14T02:12:25.935Z,70.27
2019-04-14T02:14:56.296Z,70.75
2019-04-14T02:17:26.439Z,71.03
2019-04-14T02:19:56.807Z,70.87
2019-04-14T02:22:26.967Z,70.28
2019-04-14T02:24:59.155Z,71.13
2019-04-14T02:27:29.706Z,71.05
2019-04-14T02:30:00.457Z,70.61
2019-04-14T02:32:57.306Z,70.64
2019-04-14T02:38:13.736Z,70.46
2019-04-14T02:40:57.985Z,71.16
2019-04-14T02:43:03.381Z,70.72
2019-04-14T02:45:43.165Z,70.90
2019-04-14T02:48:29.218Z,70.45
2019-04-14T02:50:38.284Z,70.78
2019-04-14T02:53:15.768Z,70.89
2019-04-14T02:55:58.069Z,70.90
2019-04-14T02:58:26.457Z,70.57
2019-04-14T03:01:02.184Z,70.93
2019-04-14T03:06:00.738Z,70.53
2019-04-14T03:08:34.321Z,70.92
2019-04-14T03:11:03.139Z,70.98
2019-04-14T03:13:35.061Z,70.66
2019-04-14T03:16:08.019Z,70.50
2019-04-14T03:22:07.230Z,70.39
2019-04-14T03:24:44.402Z,70.89
2019-04-14T03:30:58.437Z,70.80
2019-04-14T03:38:17.107Z,71.22
2019-04-14T03:43:28.347Z,71.42
2019-04-14T03:45:50.862Z,71.64
2019-04-14T03:50:45.983Z,72.26
2019-04-14T03:56:04.227Z,72.23
2019-04-14T03:58:31.620Z,72.16
2019-04-14T04:01:01.934Z,72.14
2019-04-14T04:03:32.467Z,72.30
2019-04-14T04:06:03.181Z,72.08
2019-04-14T04:08:35.548Z,72.19
2019-04-14T04:11:06.200Z,71.91
2019-04-14T04:13:37.546Z,72.70
2019-04-14T04:16:17.969Z,73.52
2019-04-14T04:18:57.995Z,73.02
2019-04-14T04:21:40.085Z,73.27
2019-04-14T04:24:31.770Z,73.06
2019-04-14T04:27:09.017Z,73.38
2019-04-14T04:30:08.087Z,72.86
2019-04-14T04:32:51.599Z,73.20
2019-04-14T04:35:45.552Z,73.20
2019-04-14T04:38:25.033Z,72.96
2019-04-14T04:40:55.196Z,73.72
2019-04-14T04:43:27.582Z,73.77
2019-04-14T04:45:58.154Z,73.59
2019-04-14T04:48:28.537Z,73.87
2019-04-14T04:50:58.657Z,73.44
2019-04-14T04:53:28.875Z,74.89
2019-04-14T04:55:59.336Z,74.05
2019-04-14T04:58:30.517Z,74.00
2019-04-14T05:01:01.412Z,74.29
2019-04-14T05:03:31.865Z,74.30
2019-04-14T05:06:48.232Z,73.92
2019-04-14T05:09:33.761Z,73.87
2019-04-14T05:12:19.584Z,74.14
2019-04-14T05:14:56.682Z,74.41
2019-04-14T05:17:27.698Z,74.59
2019-04-14T05:19:59.411Z,73.92
2019-04-14T05:22:31.061Z,73.70
2019-04-14T05:25:01.503Z,73.96
2019-04-14T05:27:31.994Z,73.65
2019-04-14T05:30:02.685Z,74.00
2019-04-14T05:32:32.850Z,73.99
2019-04-14T05:35:03.146Z,73.97
2019-04-14T05:37:33.352Z,73.60
2019-04-14T05:40:03.791Z,73.16
2019-04-14T05:42:34.131Z,73.01
2019-04-14T05:45:04.540Z,72.57
2019-04-14T05:47:35.000Z,72.86
2019-04-14T05:50:07.332Z,72.83
2019-04-14T05:52:38.239Z,72.87
2019-04-14T05:55:08.926Z,73.45
2019-04-14T05:57:39.465Z,73.08
2019-04-14T06:00:12.467Z,72.82
2019-04-14T06:02:42.591Z,72.33
2019-04-14T06:05:13.069Z,73.16
2019-04-14T06:07:44.338Z,72.70
2019-04-14T06:10:14.581Z,72.00
2019-04-14T06:12:44.737Z,71.92
2019-04-14T06:15:14.836Z,71.86
2019-04-14T06:17:44.930Z,71.58
2019-04-14T06:20:15.309Z,71.60
2019-04-14T06:22:45.448Z,71.34
2019-04-14T06:25:15.638Z,71.28
2019-04-14T06:27:48.042Z,71.17
2019-04-14T06:30:40.754Z,71.06
2019-04-14T06:33:25.528Z,70.60
2019-04-14T06:36:26.777Z,70.94
2019-04-14T06:39:10.401Z,70.79
2019-04-14T06:41:42.679Z,70.71
2019-04-14T06:44:12.811Z,70.50
2019-04-14T06:46:43.080Z,70.79
2019-04-14T06:49:13.238Z,70.68
2019-04-14T06:51:44.410Z,70.63
2019-04-14T06:54:14.610Z,70.31
2019-04-14T06:56:45.235Z,69.96
2019-04-14T06:59:19.291Z,70.06
2019-04-14T07:01:53.468Z,69.87
2019-04-14T07:04:23.577Z,69.51
2019-04-14T07:06:53.656Z,69.30
2019-04-14T07:09:23.815Z,69.12
2019-04-14T07:11:53.991Z,68.69
2019-04-14T07:14:24.153Z,68.30
2019-04-14T07:16:54.441Z,67.36
2019-04-14T07:19:26.221Z,67.45
2019-04-14T07:21:56.387Z,67.21
2019-04-14T07:24:28.601Z,66.95
2019-04-14T07:27:00.457Z,66.63
2019-04-14T07:29:37.085Z,65.98
2019-04-14T07:32:27.366Z,66.46
2019-04-14T07:35:14.966Z,66.23
2019-04-14T07:38:03.203Z,65.62
2019-04-14T07:40:59.445Z,66.00
2019-04-14T07:43:51.809Z,66.00
2019-04-14T07:46:46.801Z,65.24
2019-04-14T07:49:40.048Z,65.16
2019-04-14T07:52:28.013Z,65.08
2019-04-14T07:55:06.915Z,64.94
2019-04-14T07:58:02.142Z,64.93
2019-04-14T08:00:35.531Z,65.61
2019-04-14T08:03:27.621Z,65.18
2019-04-14T08:05:57.846Z,64.57
2019-04-14T08:08:27.988Z,63.05
2019-04-14T08:10:59.939Z,62.04
2019-04-14T08:13:35.992Z,61.47
2019-04-14T08:16:07.477Z,61.39
2019-04-14T08:18:37.622Z,59.81
2019-04-14T08:21:07.780Z,60.14
2019-04-14T08:23:37.910Z,60.48
2019-04-14T08:26:08.062Z,60.87
2019-04-14T08:28:38.228Z,60.99
2019-04-14T08:31:08.418Z,60.73
2019-04-14T08:33:38.682Z,62.02
2019-04-14T08:36:08.866Z,60.23
2019-04-14T08:38:39.009Z,60.00
2019-04-14T08:41:09.253Z,59.62
2019-04-14T08:43:59.989Z,59.32
2019-04-14T08:47:02.195Z,59.96
2019-04-14T08:49:53.270Z,59.17
2019-04-14T08:52:42.876Z,59.75
2019-04-14T08:55:27.042Z,58.33
2019-04-14T08:58:22.560Z,59.07
2019-04-14T09:01:10.558Z,58.52
2019-04-14T09:03:58.554Z,59.28
2019-04-14T09:07:02.791Z,58.38
2019-04-14T09:09:39.720Z,57.83
2019-04-14T09:12:15.938Z,57.91
2019-04-14T09:14:56.338Z,57.95
2019-04-14T09:17:17.072Z,58.33
2019-04-14T09:19:47.372Z,58.37
2019-04-14T09:22:18.662Z,57.92
2019-04-14T09:24:48.843Z,56.42
2019-04-14T09:27:18.973Z,56.40
2019-04-14T09:29:52.011Z,56.35
2019-04-14T09:32:21.310Z,55.72
2019-04-14T09:34:51.422Z,55.61
2019-04-14T09:37:23.636Z,56.32
2019-04-14T09:39:53.751Z,55.05
2019-04-14T09:42:25.963Z,54.82
2019-04-14T09:44:58.945Z,54.55
2019-04-14T09:47:29.128Z,55.36
2019-04-14T09:50:02.341Z,55.95
2019-04-14T09:52:32.539Z,55.73
2019-04-14T09:55:02.639Z,55.99
2019-04-14T09:57:33.882Z,55.16
2019-04-14T10:00:07.323Z,54.24
2019-04-14T10:02:39.608Z,53.98
2019-04-14T10:05:09.982Z,54.53
2019-04-14T10:07:40.781Z,54.56
2019-04-14T10:10:11.437Z,54.54
2019-04-14T10:12:43.519Z,53.29
2019-04-14T10:15:13.634Z,53.12
2019-04-14T10:17:43.858Z,52.42
2019-04-14T10:20:14.475Z,52.79
2019-04-14T10:22:44.723Z,53.30
2019-04-14T10:25:14.946Z,52.31
2019-04-14T10:27:46.671Z,52.48
2019-04-14T10:30:16.936Z,52.12
2019-04-14T10:32:47.205Z,52.90
2019-04-14T10:35:17.358Z,53.60
2019-04-14T10:37:49.139Z,54.04
2019-04-14T10:40:19.325Z,53.29
2019-04-14T10:42:49.500Z,52.99
2019-04-14T10:45:19.689Z,53.16
2019-04-14T10:47:49.821Z,52.62
2019-04-14T10:50:30.721Z,52.60
2019-04-14T10:52:54.469Z,52.10
2019-04-14T10:55:31.513Z,51.79
2019-04-14T10:58:01.627Z,51.09
2019-04-14T11:00:31.775Z,50.92
2019-04-14T11:03:02.012Z,51.16
2019-04-14T11:05:40.859Z,51.31
2019-04-14T11:08:12.635Z,52.52
2019-04-14T11:10:45.131Z,52.19
2019-04-14T11:13:15.692Z,53.34
2019-04-14T11:15:45.913Z,53.29
2019-04-14T11:18:16.095Z,52.86
2019-04-14T11:20:46.365Z,52.69
2019-04-14T11:23:16.550Z,53.33
2019-04-14T11:25:47.627Z,53.55
2019-04-14T11:28:17.869Z,54.43
2019-04-14T11:30:49.902Z,54.26
2019-04-14T11:33:31.519Z,54.50
2019-04-14T11:36:22.267Z,55.16
2019-04-14T11:39:03.845Z,54.68
2019-04-14T11:41:35.499Z,54.57
2019-04-14T11:44:06.305Z,54.80
2019-04-14T11:46:36.556Z,54.88
2019-04-14T11:49:06.912Z,54.89
2019-04-14T11:51:40.028Z,54.24
2019-04-14T11:54:14.639Z,54.39
2019-04-14T11:56:44.949Z,54.77
2019-04-14T11:59:15.271Z,55.03
2019-04-14T12:02:03.295Z,55.30
2019-04-14T12:04:41.830Z,56.09
2019-04-14T12:07:34.015Z,56.59
2019-04-14T12:10:15.799Z,56.81
2019-04-14T12:12:45.998Z,59.31
2019-04-14T12:15:16.755Z,59.22
2019-04-14T12:17:51.869Z,60.12
2019-04-14T12:20:21.787Z,60.57
2019-04-14T12:22:52.643Z,61.41
2019-04-14T12:25:22.837Z,61.54
2019-04-14T12:27:53.562Z,60.31
2019-04-14T12:30:29.110Z,60.76
2019-04-14T12:32:59.354Z,62.32
2019-04-14T12:35:29.510Z,61.82
2019-04-14T12:38:01.210Z,62.27
2019-04-14T12:40:31.293Z,62.73
2019-04-14T12:43:23.217Z,64.17
2019-04-14T12:46:10.911Z,63.36
2019-04-14T12:48:52.650Z,63.75
2019-04-14T12:51:27.275Z,65.14
2019-04-14T12:54:00.482Z,63.17
2019-04-14T12:56:30.627Z,63.41
2019-04-14T12:59:22.988Z,63.86
2019-04-14T13:02:10.959Z,63.43
2019-04-14T13:04:40.133Z,64.91
2019-04-14T13:07:10.281Z,63.80
2019-04-14T13:09:40.443Z,63.93
2019-04-14T13:12:15.024Z,64.04
2019-04-14T13:14:47.818Z,64.97
2019-04-14T13:17:22.742Z,65.41
2019-04-14T13:19:55.076Z,65.80
2019-04-14T13:22:33.873Z,67.01
2019-04-14T13:24:57.156Z,68.39
2019-04-14T13:27:27.261Z,68.14
2019-04-14T13:29:57.678Z,66.91
2019-04-14T13:32:35.811Z,67.33
2019-04-14T13:35:01.498Z,66.60
2019-04-14T13:37:31.602Z,68.79
2019-04-14T13:40:01.778Z,66.15
2019-04-14T13:42:33.091Z,66.87
2019-04-14T13:45:03.238Z,68.40
2019-04-14T13:47:33.431Z,68.24
2019-04-14T13:50:05.556Z,68.65
2019-04-14T13:52:46.112Z,69.81
2019-04-14T13:55:08.756Z,68.96
2019-04-14T13:57:38.862Z,69.53
2019-04-14T14:00:10.941Z,68.58
2019-04-14T14:02:41.668Z,70.15
2019-04-14T14:05:12.336Z,69.56
2019-04-14T14:07:44.175Z,69.37
2019-04-14T14:10:14.393Z,69.64
2019-04-14T14:13:04.266Z,71.16
2019-04-14T14:15:51.987Z,69.35
2019-04-14T14:18:43.795Z,69.65
2019-04-14T14:21:34.324Z,70.74
2019-04-14T14:24:24.105Z,71.01
2019-04-14T14:26:55.497Z,70.62
2019-04-14T14:29:25.648Z,71.22
2019-04-14T14:31:56.460Z,71.25
2019-04-14T14:34:26.640Z,70.95
2019-04-14T14:36:56.763Z,70.69
2019-04-14T14:39:26.876Z,71.21
2019-04-14T14:41:57.055Z,72.27
2019-04-14T14:44:33.200Z,72.06
2019-04-14T14:47:10.741Z,72.60
2019-04-14T14:49:59.834Z,72.30
2019-04-14T14:52:32.278Z,72.22
2019-04-14T14:55:02.535Z,72.56
2019-04-14T14:57:32.653Z,73.43
2019-04-14T15:00:02.982Z,72.60
2019-04-14T15:02:33.328Z,72.90
2019-04-14T15:05:03.538Z,72.06
2019-04-14T15:07:33.667Z,72.58
2019-04-14T15:10:04.020Z,72.44
2019-04-14T15:12:34.414Z,72.03
2019-04-14T15:15:04.670Z,72.19
2019-04-14T15:17:34.829Z,72.35
2019-04-14T15:20:05.319Z,71.84
2019-04-14T15:22:35.531Z,71.90
2019-04-14T15:25:05.767Z,72.40
2019-04-14T15:27:36.164Z,73.98
2019-04-14T15:30:08.537Z,72.86
2019-04-14T15:32:39.595Z,72.84
2019-04-14T15:35:11.971Z,72.99
2019-04-14T15:37:42.375Z,73.67
2019-04-14T15:40:14.629Z,73.67
2019-04-14T15:42:46.841Z,73.34
2019-04-14T15:45:18.158Z,73.38
2019-04-14T15:47:48.439Z,73.97
2019-04-14T15:50:18.559Z,73.62
2019-04-14T15:52:48.951Z,73.29
2019-04-14T15:55:21.886Z,74.13
2019-04-14T15:58:13.968Z,73.93
2019-04-14T16:01:05.203Z,74.50
2019-04-14T16:03:43.737Z,74.33
2019-04-14T16:06:31.507Z,73.51
2019-04-14T16:09:14.715Z,74.22
2019-04-14T16:12:03.935Z,74.17
2019-04-14T16:14:53.097Z,73.78
2019-04-14T16:17:36.232Z,74.18
2019-04-14T16:20:11.196Z,74.43
2019-04-14T16:22:42.688Z,75.08
2019-04-14T16:25:14.477Z,75.11
2019-04-14T16:28:07.546Z,75.74
2019-04-14T16:30:56.763Z,74.55
2019-04-14T16:33:55.308Z,75.16
2019-04-14T16:36:25.653Z,74.80
2019-04-14T16:38:55.952Z,75.71
2019-04-14T16:41:26.918Z,74.40
2019-04-14T16:43:58.014Z,74.66
2019-04-14T16:46:28.256Z,74.75
2019-04-14T16:48:58.755Z,74.99
2019-04-14T16:51:33.283Z,75.13
2019-04-14T16:54:10.470Z,74.66
2019-04-14T16:56:58.537Z,74.37
2019-04-14T16:59:33.980Z,75.37
2019-04-14T17:02:11.217Z,75.54
2019-04-14T17:04:39.780Z,75.68
2019-04-14T17:07:10.077Z,75.58
2019-04-14T17:09:40.368Z,75.35
2019-04-14T17:12:15.463Z,75.75
2019-04-14T17:15:14.231Z,76.17
2019-04-14T17:18:02.383Z,75.14
2019-04-14T17:20:58.800Z,75.33
2019-04-14T17:23:51.651Z,75.28
2019-04-14T17:26:45.822Z,75.58
2019-04-14T17:29:27.438Z,75.75
2019-04-14T17:32:23.366Z,75.26
2019-04-14T17:35:21.736Z,75.33
2019-04-14T17:37:59.645Z,76.84
2019-04-14T17:40:46.432Z,75.86
2019-04-14T17:43:36.039Z,75.66
2019-04-14T17:46:30.692Z,75.68
2019-04-14T17:49:29.820Z,75.39
2019-04-14T17:52:20.969Z,76.01
2019-04-14T17:55:08.062Z,76.36
2019-04-14T17:57:55.969Z,77.56
2019-04-14T18:00:51.002Z,77.15
2019-04-14T18:03:31.074Z,77.26
2019-04-14T18:06:06.924Z,77.65
2019-04-14T18:08:54.754Z,77.81
2019-04-14T18:11:47.141Z,78.21
2019-04-14T18:14:42.316Z,77.41
2019-04-14T18:17:34.432Z,77.48
2019-04-14T18:20:14.844Z,78.17
2019-04-14T18:22:45.076Z,77.86
2019-04-14T18:25:15.328Z,77.95
2019-04-14T18:28:02.709Z,77.68
2019-04-14T18:30:37.844Z,77.54
2019-04-14T18:33:30.535Z,77.80
2019-04-14T18:36:08.986Z,77.96
2019-04-14T18:38:59.202Z,77.83
2019-04-14T18:41:57.018Z,77.71
2019-04-14T18:44:48.944Z,77.41
2019-04-14T18:47:41.704Z,78.02
2019-04-14T18:50:21.496Z,77.83
2019-04-14T18:53:10.631Z,77.39
2019-04-14T18:56:20.196Z,77.27
2019-04-14T18:59:12.234Z,77.39
2019-04-14T19:01:44.550Z,77.67
2019-04-14T19:04:16.387Z,77.78
2019-04-14T19:06:46.774Z,77.35
2019-04-14T19:09:17.285Z,77.34
2019-04-14T19:12:17.597Z,77.43
2019-04-14T19:14:51.130Z,77.23
2019-04-14T19:17:45.335Z,77.36
2019-04-14T19:20:18.050Z,77.80
2019-04-14T19:22:52.034Z,78.37
2019-04-14T19:25:30.299Z,78.70
2019-04-14T19:28:01.034Z,78.43
2019-04-14T19:30:31.560Z,78.32
2019-04-14T19:33:02.602Z,78.31
2019-04-14T19:35:33.467Z,78.01
2019-04-14T19:38:08.493Z,77.70
2019-04-14T19:40:41.196Z,78.25
2019-04-14T19:43:23.209Z,77.90
2019-04-14T19:45:46.550Z,78.24
2019-04-14T19:48:17.401Z,77.76
2019-04-14T19:50:49.250Z,78.40
2019-04-14T19:53:21.378Z,78.11
2019-04-14T19:55:52.332Z,77.90
2019-04-14T19:58:29.492Z,77.87
2019-04-14T20:01:02.234Z,77.68
2019-04-14T20:03:36.230Z,77.71
2019-04-14T20:06:10.880Z,77.97
2019-04-14T20:08:45.707Z,77.83
2019-04-14T20:11:17.697Z,78.21
2019-04-14T20:13:48.845Z,78.71
2019-04-14T20:16:33.992Z,78.69
2019-04-14T20:19:20.651Z,78.88
2019-04-14T20:22:18.918Z,78.69
2019-04-14T20:25:06.704Z,78.58
2019-04-14T20:27:42.430Z,78.82
2019-04-14T20:30:23.852Z,78.91
2019-04-14T20:32:54.628Z,79.22
2019-04-14T20:35:26.245Z,79.26
2019-04-14T20:37:56.793Z,79.53
2019-04-14T20:40:28.141Z,79.85
2019-04-14T20:42:58.865Z,79.78
2019-04-14T20:45:29.903Z,79.49
2019-04-14T20:48:00.454Z,79.46
2019-04-14T20:50:34.558Z,79.35
2019-04-14T20:53:05.637Z,79.24
2019-04-14T20:55:46.695Z,79.49
2019-04-14T20:58:09.347Z,79.31
2019-04-14T21:00:40.006Z,79.37
2019-04-14T21:03:35.975Z,79.66
2019-04-14T21:06:23.989Z,79.62
2019-04-14T21:09:03.395Z,80.10
2019-04-14T21:11:48.728Z,80.05
2019-04-14T21:14:29.005Z,79.67
2019-04-14T21:17:06.171Z,79.89
2019-04-14T21:19:55.478Z,79.34
2019-04-14T21:22:33.419Z,78.87
2019-04-14T21:25:12.883Z,79.18
2019-04-14T21:28:17.473Z,78.20
2019-04-14T21:31:15.092Z,78.18
2019-04-14T21:33:51.611Z,78.44
2019-04-14T21:36:44.059Z,78.57
2019-04-14T21:39:36.828Z,78.56
2019-04-14T21:42:07.493Z,78.51
2019-04-14T21:44:37.729Z,78.41
2019-04-14T21:47:08.209Z,78.99
2019-04-14T21:49:38.497Z,78.98
2019-04-14T21:52:17.689Z,78.92
2019-04-14T21:54:48.312Z,78.98
2019-04-14T21:57:47.173Z,78.79
2019-04-14T22:00:38.455Z,79.59
2019-04-14T22:03:44.624Z,79.88
2019-04-14T22:06:20.847Z,79.65
2019-04-14T22:08:53.170Z,80.21
2019-04-14T22:11:27.423Z,79.97
2019-04-14T22:13:58.264Z,79.42
2019-04-14T22:16:28.829Z,79.78
2019-04-14T22:19:00.010Z,79.48
2019-04-14T22:21:30.317Z,78.85
2019-04-14T22:24:02.314Z,78.37
2019-04-14T22:26:33.149Z,77.89
2019-04-14T22:29:04.097Z,78.72
2019-04-14T22:31:34.338Z,78.27
2019-04-14T22:34:04.686Z,77.81
2019-04-14T22:36:34.885Z,77.11
2019-04-14T22:39:09.107Z,76.68
2019-04-14T22:41:40.683Z,76.73
2019-04-14T22:44:11.273Z,76.96
2019-04-14T22:46:41.740Z,76.81
2019-04-14T22:49:12.328Z,76.57
2019-04-14T22:51:42.736Z,76.41
2019-04-14T22:54:13.992Z,76.05
2019-04-14T22:56:47.419Z,75.94
2019-04-14T22:59:19.908Z,76.12
2019-04-14T23:02:02.653Z,76.59
2019-04-14T23:04:52.268Z,75.98
2019-04-14T23:07:47.588Z,76.89
2019-04-14T23:10:52.299Z,76.44
2019-04-14T23:13:32.732Z,76.65
2019-04-14T23:16:11.328Z,76.25
2019-04-14T23:19:00.138Z,76.33
2019-04-14T23:21:38.669Z,76.74
2019-04-14T23:24:25.910Z,76.74
2019-04-14T23:26:56.126Z,76.67
2019-04-14T23:29:26.280Z,77.16
2019-04-14T23:31:56.589Z,77.72
2019-04-14T23:34:28.031Z,77.99
2019-04-14T23:36:59.071Z,78.12
2019-04-14T23:39:29.248Z,78.07
2019-04-14T23:41:59.364Z,77.37
2019-04-14T23:44:29.521Z,77.49
2019-04-14T23:46:59.624Z,76.85
2019-04-14T23:49:29.764Z,76.57
2019-04-14T23:51:59.926Z,76.51
2019-04-14T23:54:30.220Z,76.46
2019-04-14T23:57:06.047Z,76.35
2019-04-14T23:59:32.290Z,76.26
